createdAt,value
2018-10-15T00:02:11.370Z,80.40
2018-10-15T00:04:39.928Z,80.60
2018-10-15T00:07:12.652Z,81.10
2018-10-15T00:09:41.192Z,81.20
2018-10-15T00:12:09.724Z,81.50
2018-10-15T00:14:38.280Z,82.00
2018-10-15T00:17:06.815Z,82.60
2018-10-15T00:19:35.374Z,82.70
2018-10-15T00:22:03.908Z,82.30
2018-10-15T00:24:32.471Z,83.40
2018-10-15T00:27:01.170Z,83.70
2018-10-15T00:29:30.049Z,84.20
2018-10-15T00:31:58.574Z,84.20
2018-10-15T00:34:27.161Z,84.10
2018-10-15T00:36:55.738Z,84.60
2018-10-15T00:39:24.293Z,85.60
2018-10-15T00:41:52.791Z,85.00
2018-10-15T00:44:21.362Z,85.70
2018-10-15T00:46:49.946Z,85.40
2018-10-15T00:49:18.520Z,85.70
2018-10-15T00:51:47.056Z,85.80
2018-10-15T00:54:15.628Z,85.50
2018-10-15T00:56:44.131Z,85.30
2018-10-15T00:59:12.630Z,85.20
2018-10-15T01:01:41.200Z,85.10
2018-10-15T01:04:09.716Z,85.00
2018-10-15T01:06:38.286Z,84.80
2018-10-15T01:09:07.656Z,84.50
2018-10-15T01:11:36.206Z,84.70
2018-10-15T01:14:05.502Z,84.60
2018-10-15T01:16:34.048Z,84.40
2018-10-15T01:19:02.596Z,84.30
2018-10-15T01:21:31.126Z,84.30
2018-10-15T01:23:59.653Z,84.20
2018-10-15T01:26:33.491Z,84.10
2018-10-15T01:29:02.022Z,84.00
2018-10-15T01:31:30.607Z,83.70
2018-10-15T01:33:59.110Z,83.50
2018-10-15T01:36:27.691Z,83.30
2018-10-15T01:38:56.182Z,83.00
2018-10-15T01:41:25.091Z,82.90
2018-10-15T01:43:53.623Z,82.60
2018-10-15T01:46:22.752Z,82.50
2018-10-15T01:48:51.307Z,82.50
2018-10-15T01:51:20.192Z,82.50
2018-10-15T01:53:48.764Z,81.90
2018-10-15T01:56:17.324Z,81.60
2018-10-15T01:58:45.877Z,81.50
2018-10-15T02:01:14.376Z,81.60
2018-10-15T02:03:42.935Z,81.70
2018-10-15T02:06:11.687Z,81.60
2018-10-15T02:08:40.257Z,81.50
2018-10-15T02:11:08.813Z,81.50
2018-10-15T02:13:37.378Z,81.50
2018-10-15T02:16:06.184Z,81.50
2018-10-15T02:18:34.859Z,81.60
2018-10-15T02:21:03.383Z,81.70
2018-10-15T02:23:31.924Z,81.50
2018-10-15T02:26:00.423Z,82.20
2018-10-15T02:28:28.961Z,81.40
2018-10-15T02:30:57.461Z,81.20
2018-10-15T02:33:25.971Z,81.10
2018-10-15T02:35:54.505Z,81.00
2018-10-15T02:38:23.034Z,80.90
2018-10-15T02:40:51.556Z,80.90
2018-10-15T02:43:20.150Z,81.10
2018-10-15T02:45:48.650Z,81.10
2018-10-15T02:48:17.161Z,81.40
2018-10-15T02:50:45.707Z,81.50
2018-10-15T02:53:14.225Z,81.50
2018-10-15T02:55:42.756Z,81.70
2018-10-15T02:58:11.275Z,81.60
2018-10-15T03:00:39.835Z,81.50
2018-10-15T03:03:08.336Z,81.60
2018-10-15T03:05:36.934Z,81.50
2018-10-15T03:08:05.446Z,81.30
2018-10-15T03:10:34.008Z,81.40
2018-10-15T03:13:02.634Z,81.50
2018-10-15T03:15:31.194Z,81.70
2018-10-15T03:17:59.709Z,82.20
2018-10-15T03:20:28.274Z,82.20
2018-10-15T03:22:56.804Z,82.50
2018-10-15T03:25:25.360Z,83.00
2018-10-15T03:27:53.898Z,83.00
2018-10-15T03:30:22.476Z,82.90
2018-10-15T03:32:51.008Z,83.00
2018-10-15T03:35:19.598Z,83.10
2018-10-15T03:37:48.117Z,83.30
2018-10-15T03:40:16.851Z,83.50
2018-10-15T03:42:45.378Z,83.80
2018-10-15T03:45:13.930Z,83.90
2018-10-15T03:47:42.497Z,84.20
2018-10-15T03:50:11.047Z,84.40
2018-10-15T03:52:39.620Z,84.50
2018-10-15T03:55:08.189Z,84.60
2018-10-15T03:57:36.734Z,84.80
2018-10-15T04:00:05.913Z,85.30
2018-10-15T04:02:34.533Z,85.60
2018-10-15T04:05:02.968Z,85.30
2018-10-15T04:07:31.522Z,85.10
2018-10-15T04:10:00.015Z,84.80
2018-10-15T04:12:29.662Z,85.10
2018-10-15T04:14:58.160Z,85.80
2018-10-15T04:17:26.720Z,86.50
2018-10-15T04:19:55.285Z,86.50
2018-10-15T04:22:23.859Z,87.00
2018-10-15T04:24:52.372Z,86.90
2018-10-15T04:27:20.935Z,88.30
2018-10-15T04:29:49.773Z,88.70
2018-10-15T04:32:18.336Z,89.20
2018-10-15T04:34:46.888Z,89.70
2018-10-15T04:37:15.418Z,90.10
2018-10-15T04:39:43.980Z,90.40
2018-10-15T04:42:12.500Z,90.50
2018-10-15T04:44:41.093Z,91.40
2018-10-15T04:47:09.622Z,91.60
2018-10-15T04:49:38.440Z,92.10
2018-10-15T04:52:06.744Z,92.10
2018-10-15T04:54:35.307Z,92.30
2018-10-15T04:57:03.828Z,92.20
2018-10-15T04:59:32.381Z,92.20
2018-10-15T05:02:00.878Z,92.20
2018-10-15T05:04:29.417Z,92.00
2018-10-15T05:06:57.942Z,92.20
2018-10-15T05:09:26.537Z,92.50
2018-10-15T05:11:55.063Z,92.60
2018-10-15T05:14:23.622Z,92.60
2018-10-15T05:16:52.136Z,93.00
2018-10-15T05:19:20.694Z,93.00
2018-10-15T05:21:49.236Z,92.90
2018-10-15T05:24:18.320Z,92.80
2018-10-15T05:26:46.858Z,93.10
2018-10-15T05:29:16.388Z,92.90
2018-10-15T05:31:44.978Z,92.80
2018-10-15T05:34:13.574Z,92.50
2018-10-15T05:36:42.141Z,92.50
2018-10-15T05:39:11.863Z,92.60
2018-10-15T05:41:40.468Z,92.50
2018-10-15T05:44:08.976Z,92.30
2018-10-15T05:46:37.977Z,92.40
2018-10-15T05:49:07.168Z,92.40
2018-10-15T05:51:35.747Z,92.40
2018-10-15T05:54:04.441Z,92.10
2018-10-15T05:56:32.962Z,92.20
2018-10-15T05:59:07.472Z,92.10
2018-10-15T06:01:36.059Z,91.70
2018-10-15T06:04:05.382Z,91.60
2018-10-15T06:06:33.959Z,91.20
2018-10-15T06:09:02.558Z,90.60
2018-10-15T06:11:31.122Z,90.70
2018-10-15T06:13:59.647Z,91.00
2018-10-15T06:16:28.228Z,90.60
2018-10-15T06:18:56.720Z,90.20
2018-10-15T06:21:25.332Z,89.20
2018-10-15T06:23:53.856Z,88.50
2018-10-15T06:26:22.472Z,88.70
2018-10-15T06:28:51.042Z,89.20
2018-10-15T06:31:19.690Z,87.50
2018-10-15T06:33:48.315Z,87.90
2018-10-15T06:36:16.920Z,88.30
2018-10-15T06:38:45.427Z,88.50
2018-10-15T06:41:13.968Z,88.50
2018-10-15T06:43:42.579Z,88.80
2018-10-15T06:46:11.234Z,88.50
2018-10-15T06:48:39.752Z,88.80
2018-10-15T06:51:08.322Z,88.70
2018-10-15T06:53:36.894Z,88.70
2018-10-15T06:56:05.770Z,88.90
2018-10-15T06:58:34.316Z,88.80
2018-10-15T07:01:02.974Z,88.20
2018-10-15T07:03:31.534Z,88.50
2018-10-15T07:06:00.139Z,88.30
2018-10-15T07:08:28.720Z,88.10
2018-10-15T07:10:57.268Z,85.80
2018-10-15T07:13:25.843Z,85.00
2018-10-15T07:15:54.349Z,84.40
2018-10-15T07:18:22.962Z,81.00
2018-10-15T07:20:51.543Z,79.60
2018-10-15T07:23:19.950Z,78.70
2018-10-15T07:25:48.492Z,78.40
2018-10-15T07:28:17.018Z,76.30
2018-10-15T07:30:45.555Z,75.80
2018-10-15T07:33:14.073Z,74.30
2018-10-15T07:35:42.678Z,75.30
2018-10-15T07:38:11.248Z,73.10
2018-10-15T07:40:39.797Z,70.70
2018-10-15T07:43:08.320Z,70.30
2018-10-15T07:45:36.895Z,70.30
2018-10-15T07:48:05.636Z,71.00
2018-10-15T07:50:34.165Z,66.90
2018-10-15T07:53:02.768Z,66.40
2018-10-15T07:55:31.294Z,68.70
2018-10-15T07:57:59.845Z,68.10
2018-10-15T08:00:28.476Z,67.00
2018-10-15T08:02:56.938Z,67.00
2018-10-15T08:05:26.085Z,66.40
2018-10-15T08:07:54.695Z,65.50
2018-10-15T08:10:23.366Z,65.00
2018-10-15T08:12:51.786Z,63.50
2018-10-15T08:15:21.215Z,64.40
2018-10-15T08:17:49.628Z,64.80
2018-10-15T08:20:19.261Z,63.20
2018-10-15T08:22:48.576Z,61.20
2018-10-15T08:25:17.100Z,61.90
2018-10-15T08:27:45.681Z,59.60
2018-10-15T08:30:15.811Z,59.60
2018-10-15T08:32:44.563Z,59.30
2018-10-15T08:35:13.264Z,59.70
2018-10-15T08:37:41.835Z,59.30
2018-10-15T08:40:12.392Z,57.60
2018-10-15T08:42:42.943Z,56.70
2018-10-15T08:45:11.805Z,58.00
2018-10-15T08:47:40.458Z,55.30
2018-10-15T08:50:10.218Z,55.30
2018-10-15T08:52:39.144Z,56.80
2018-10-15T08:55:07.766Z,56.90
2018-10-15T08:57:37.579Z,55.20
2018-10-15T09:00:09.797Z,55.90
2018-10-15T09:02:38.419Z,55.50
2018-10-15T09:05:07.951Z,55.90
2018-10-15T09:07:36.690Z,54.60
2018-10-15T09:10:06.130Z,54.40
2018-10-15T09:12:34.750Z,54.00
2018-10-15T09:15:03.606Z,54.90
2018-10-15T09:17:32.187Z,53.80
2018-10-15T09:20:00.896Z,53.80
2018-10-15T09:22:29.399Z,54.50
2018-10-15T09:24:57.922Z,54.20
2018-10-15T09:27:26.550Z,53.70
2018-10-15T09:29:55.273Z,53.80
2018-10-15T09:32:23.875Z,54.00
2018-10-15T09:34:52.518Z,53.80
2018-10-15T09:37:20.988Z,54.30
2018-10-15T09:39:49.571Z,51.70
2018-10-15T09:42:18.111Z,53.40
2018-10-15T09:44:46.684Z,53.40
2018-10-15T09:47:15.251Z,52.90
2018-10-15T09:49:43.894Z,53.40
2018-10-15T09:52:12.390Z,54.20
2018-10-15T09:54:40.986Z,54.40
2018-10-15T09:57:09.507Z,54.20
2018-10-15T09:59:38.846Z,54.50
2018-10-15T10:02:07.596Z,53.90
2018-10-15T10:04:36.299Z,52.90
2018-10-15T10:07:05.395Z,53.20
2018-10-15T10:12:08.298Z,53.20
2018-10-15T10:14:36.949Z,52.50
2018-10-15T10:17:05.485Z,52.70
2018-10-15T10:19:34.026Z,52.90
2018-10-15T10:22:03.864Z,52.20
2018-10-15T10:24:32.324Z,52.30
2018-10-15T10:27:00.993Z,50.90
2018-10-15T10:29:29.478Z,52.30
2018-10-15T10:31:57.982Z,52.10
2018-10-15T10:34:58.243Z,52.60
2018-10-15T10:37:26.786Z,52.40
2018-10-15T10:39:55.524Z,53.00
2018-10-15T10:42:24.028Z,52.10
2018-10-15T10:44:52.607Z,52.30
2018-10-15T10:47:21.175Z,51.30
2018-10-15T10:49:49.679Z,50.60
2018-10-15T10:52:18.204Z,51.30
2018-10-15T10:54:46.781Z,51.40
2018-10-15T10:57:15.352Z,51.10
2018-10-15T10:59:43.990Z,52.30
2018-10-15T11:02:12.688Z,51.40
2018-10-15T11:04:41.196Z,51.80
2018-10-15T11:07:09.724Z,50.90
2018-10-15T11:09:38.251Z,51.10
2018-10-15T11:12:06.911Z,51.10
2018-10-15T11:14:35.459Z,51.70
2018-10-15T11:17:04.235Z,51.30
2018-10-15T11:19:32.763Z,50.60
2018-10-15T11:22:02.542Z,50.60
2018-10-15T11:24:31.079Z,51.00
2018-10-15T11:26:59.698Z,50.60
2018-10-15T11:29:28.737Z,50.30
2018-10-15T11:31:57.249Z,50.20
2018-10-15T11:34:25.856Z,49.90
2018-10-15T11:36:54.356Z,50.10
2018-10-15T11:39:22.892Z,50.20
2018-10-15T11:41:51.487Z,51.30
2018-10-15T11:44:20.139Z,52.10
2018-10-15T11:46:48.681Z,52.70
2018-10-15T11:49:17.161Z,51.40
2018-10-15T11:51:45.731Z,51.00
2018-10-15T11:54:14.324Z,51.30
2018-10-15T11:56:42.809Z,51.50
2018-10-15T11:59:11.308Z,50.30
2018-10-15T12:01:39.871Z,50.80
2018-10-15T12:04:08.448Z,50.90
2018-10-15T12:06:36.975Z,52.00
2018-10-15T12:11:43.496Z,51.70
2018-10-15T12:14:12.105Z,51.80
2018-10-15T12:16:40.706Z,52.30
2018-10-15T12:19:09.242Z,51.90
2018-10-15T12:21:37.751Z,51.40
2018-10-15T12:24:06.357Z,52.30
2018-10-15T12:26:34.895Z,52.50
2018-10-15T12:29:03.526Z,52.40
2018-10-15T12:31:32.041Z,52.20
2018-10-15T12:34:00.687Z,52.30
2018-10-15T12:36:29.244Z,52.00
2018-10-15T12:38:57.838Z,53.40
2018-10-15T12:41:26.399Z,51.80
2018-10-15T12:43:55.011Z,52.80
2018-10-15T12:46:23.523Z,52.80
2018-10-15T12:48:52.115Z,52.80
2018-10-15T12:51:20.611Z,53.50
2018-10-15T12:53:49.297Z,54.00
2018-10-15T12:56:17.763Z,54.80
2018-10-15T12:58:46.360Z,54.00
2018-10-15T13:01:15.029Z,53.90
2018-10-15T13:03:43.535Z,54.30
2018-10-15T13:06:12.058Z,53.70
2018-10-15T13:08:40.619Z,54.00
2018-10-15T13:11:09.204Z,53.50
2018-10-15T13:13:37.763Z,53.50
2018-10-15T13:16:06.342Z,54.00
2018-10-15T13:18:34.859Z,53.10
2018-10-15T13:21:03.439Z,53.00
2018-10-15T13:23:31.943Z,53.20
2018-10-15T13:26:00.512Z,53.40
2018-10-15T13:28:29.097Z,53.50
2018-10-15T13:30:57.686Z,53.10
2018-10-15T13:33:26.240Z,54.20
2018-10-15T13:35:54.868Z,53.90
2018-10-15T13:38:23.434Z,53.60
2018-10-15T13:40:52.039Z,53.40
2018-10-15T13:43:20.598Z,53.40
2018-10-15T13:45:49.230Z,53.80
2018-10-15T13:48:17.804Z,54.10
2018-10-15T13:50:46.534Z,54.10
2018-10-15T13:53:15.069Z,54.40
2018-10-15T13:55:43.600Z,55.00
2018-10-15T13:58:12.178Z,55.00
2018-10-15T14:00:42.800Z,55.20
2018-10-15T14:03:13.152Z,55.90
2018-10-15T14:05:41.668Z,55.90
2018-10-15T14:08:10.232Z,56.30
2018-10-15T14:10:38.823Z,57.00
2018-10-15T14:13:07.442Z,55.70
2018-10-15T14:15:35.968Z,55.80
2018-10-15T14:18:05.357Z,55.70
2018-10-15T14:20:33.914Z,55.40
2018-10-15T14:23:02.566Z,55.40
2018-10-15T14:25:31.108Z,55.40
2018-10-15T14:27:59.706Z,55.50
2018-10-15T14:30:28.246Z,56.10
2018-10-15T14:32:56.851Z,55.90
2018-10-15T14:35:25.415Z,56.30
2018-10-15T14:37:53.975Z,56.40
2018-10-15T14:40:22.486Z,56.10
2018-10-15T14:42:51.057Z,56.10
2018-10-15T14:45:19.630Z,56.10
2018-10-15T14:47:48.203Z,55.90
2018-10-15T14:50:18.236Z,56.10
2018-10-15T14:52:47.979Z,56.60
2018-10-15T14:55:16.617Z,56.60
2018-10-15T14:57:45.236Z,56.40
2018-10-15T15:00:14.829Z,56.60
2018-10-15T15:02:43.380Z,56.80
2018-10-15T15:05:12.554Z,57.30
2018-10-15T15:07:41.171Z,57.20
2018-10-15T15:13:07.199Z,58.60
2018-10-15T15:15:35.769Z,58.70
2018-10-15T15:18:04.567Z,58.50
2018-10-15T15:20:33.116Z,59.60
2018-10-15T15:23:01.656Z,59.10
2018-10-15T15:25:30.247Z,59.50
2018-10-15T15:27:58.842Z,60.70
2018-10-15T15:30:27.435Z,60.30
2018-10-15T15:32:56.049Z,59.70
2018-10-15T15:35:24.599Z,60.10
2018-10-15T15:37:53.151Z,59.90
2018-10-15T15:40:21.762Z,60.60
2018-10-15T15:42:50.334Z,60.00
2018-10-15T15:45:19.006Z,61.60
2018-10-15T15:47:47.582Z,62.00
2018-10-15T15:50:16.151Z,61.50
2018-10-15T15:52:44.736Z,61.50
2018-10-15T15:55:13.300Z,61.80
2018-10-15T15:57:41.898Z,62.50
2018-10-15T16:00:12.280Z,63.50
2018-10-15T16:02:41.154Z,63.00
2018-10-15T16:05:10.262Z,63.30
2018-10-15T16:07:39.311Z,62.90
2018-10-15T16:10:09.054Z,63.50
2018-10-15T16:12:37.660Z,63.70
2018-10-15T16:15:07.779Z,63.70
2018-10-15T16:17:36.442Z,64.10
2018-10-15T16:20:06.082Z,64.30
2018-10-15T16:22:34.697Z,64.20
2018-10-15T16:25:03.238Z,64.90
2018-10-15T16:27:32.136Z,65.00
2018-10-15T16:30:00.653Z,64.70
2018-10-15T16:32:29.260Z,65.10
2018-10-15T16:34:57.811Z,65.00
2018-10-15T16:37:26.424Z,64.90
2018-10-15T16:39:54.960Z,65.60
2018-10-15T16:42:23.632Z,65.60
2018-10-15T16:44:52.189Z,66.60
2018-10-15T16:47:20.763Z,65.50
2018-10-15T16:49:49.320Z,66.00
2018-10-15T16:52:17.809Z,66.10
2018-10-15T16:54:46.375Z,66.00
2018-10-15T16:57:14.900Z,66.50
2018-10-15T16:59:43.439Z,66.20
2018-10-15T17:02:11.968Z,66.60
2018-10-15T17:04:40.553Z,66.20
2018-10-15T17:07:09.122Z,66.40
2018-10-15T17:09:37.724Z,67.30
2018-10-15T17:12:06.445Z,67.10
2018-10-15T17:14:34.976Z,67.70
2018-10-15T17:17:03.506Z,68.00
2018-10-15T17:19:32.091Z,68.00
2018-10-15T17:22:00.626Z,68.30
2018-10-15T17:24:29.208Z,69.30
2018-10-15T17:26:57.755Z,69.00
2018-10-15T17:29:26.332Z,68.70
2018-10-15T17:31:54.934Z,69.00
2018-10-15T17:34:23.496Z,69.40
2018-10-15T17:36:52.094Z,68.90
2018-10-15T17:39:20.645Z,69.00
2018-10-15T17:41:49.226Z,69.70
2018-10-15T17:44:17.759Z,69.60
2018-10-15T17:46:46.396Z,69.30
2018-10-15T17:49:14.944Z,69.90
2018-10-15T17:51:43.512Z,70.90
2018-10-15T17:54:12.070Z,69.80
2018-10-15T17:56:40.625Z,69.90
2018-10-15T17:59:09.146Z,69.90
2018-10-15T18:01:37.749Z,69.80
2018-10-15T18:04:06.423Z,70.10
2018-10-15T18:06:34.889Z,70.70
2018-10-15T18:09:04.901Z,70.40
2018-10-15T18:11:33.450Z,70.80
2018-10-15T18:14:01.998Z,70.70
2018-10-15T18:16:30.594Z,71.10
2018-10-15T18:18:59.121Z,71.00
2018-10-15T18:21:27.690Z,71.00
2018-10-15T18:23:56.216Z,71.90
2018-10-15T18:26:25.598Z,73.80
2018-10-15T18:28:54.174Z,74.50
2018-10-15T18:31:22.775Z,75.20
2018-10-15T18:33:51.246Z,76.60
2018-10-15T18:39:09.388Z,78.30
2018-10-15T18:41:37.993Z,78.20
2018-10-15T18:44:07.291Z,78.40
2018-10-15T18:46:35.839Z,79.60
2018-10-15T18:49:04.639Z,79.80
2018-10-15T18:51:33.178Z,81.70
2018-10-15T18:54:02.917Z,81.80
2018-10-15T18:56:31.475Z,82.30
2018-10-15T18:58:59.985Z,82.80
2018-10-15T19:01:29.294Z,83.70
2018-10-15T19:03:57.827Z,82.80
2018-10-15T19:06:26.826Z,82.90
2018-10-15T19:08:55.379Z,82.90
2018-10-15T19:11:24.022Z,83.00
2018-10-15T19:13:52.699Z,83.10
2018-10-15T19:16:21.285Z,84.60
2018-10-15T19:18:49.811Z,85.40
2018-10-15T19:21:18.447Z,85.30
2018-10-15T19:23:47.037Z,86.10
2018-10-15T19:26:15.632Z,86.70
2018-10-15T19:28:44.142Z,87.00
2018-10-15T19:31:12.705Z,86.60
2018-10-15T19:33:41.187Z,88.00
2018-10-15T19:36:10.109Z,87.00
2018-10-15T19:38:38.978Z,87.10
2018-10-15T19:41:07.655Z,88.10
2018-10-15T19:43:36.207Z,88.80
2018-10-15T19:46:04.743Z,88.70
2018-10-15T19:48:33.345Z,87.90
2018-10-15T19:51:01.867Z,89.10
2018-10-15T19:53:30.438Z,89.10
2018-10-15T19:55:58.979Z,89.60
2018-10-15T19:58:27.671Z,90.10
2018-10-15T20:00:56.151Z,90.50
2018-10-15T20:03:24.849Z,90.60
2018-10-15T20:05:53.302Z,90.70
2018-10-15T20:08:21.862Z,91.10
2018-10-15T20:10:50.408Z,91.50
2018-10-15T20:13:18.930Z,91.60
2018-10-15T20:15:47.452Z,91.90
2018-10-15T20:18:16.022Z,91.80
2018-10-15T20:20:44.513Z,92.10
2018-10-15T20:23:13.048Z,92.00
2018-10-15T20:25:41.594Z,91.90
2018-10-15T20:28:10.125Z,92.40
2018-10-15T20:30:38.614Z,92.40
2018-10-15T20:33:07.136Z,92.80
2018-10-15T20:35:36.567Z,93.10
2018-10-15T20:38:05.658Z,93.20
2018-10-15T20:40:34.206Z,93.50
2018-10-15T20:43:02.767Z,93.40
2018-10-15T20:45:31.338Z,93.50
2018-10-15T20:47:59.898Z,93.60
2018-10-15T20:50:28.446Z,93.70
2018-10-15T20:52:56.993Z,93.70
2018-10-15T20:55:25.578Z,93.90
2018-10-15T20:57:54.120Z,93.90
2018-10-15T21:00:22.754Z,93.80
2018-10-15T21:02:51.334Z,93.80
2018-10-15T21:05:19.879Z,94.10
2018-10-15T21:07:48.402Z,94.40
2018-10-15T21:10:17.702Z,94.80
2018-10-15T21:12:46.196Z,94.50
2018-10-15T21:15:14.755Z,94.70
2018-10-15T21:17:43.224Z,94.90
2018-10-15T21:20:12.053Z,95.10
2018-10-15T21:22:41.212Z,95.00
2018-10-15T21:25:10.971Z,94.90
2018-10-15T21:27:40.064Z,94.90
2018-10-15T21:30:09.657Z,94.90
2018-10-15T21:32:38.826Z,95.00
2018-10-15T21:35:08.301Z,94.80
2018-10-15T21:37:36.844Z,94.70
2018-10-15T21:40:06.936Z,94.70
2018-10-15T21:42:35.471Z,94.60
2018-10-15T21:45:04.079Z,94.60
2018-10-15T21:47:32.619Z,94.70
2018-10-15T21:50:01.161Z,94.90
2018-10-15T21:52:29.720Z,94.90
2018-10-15T21:54:58.209Z,94.60
2018-10-15T21:57:26.834Z,94.50
2018-10-15T21:59:55.288Z,94.50
2018-10-15T22:02:23.879Z,94.80
2018-10-15T22:04:52.400Z,95.00
2018-10-15T22:07:20.967Z,95.10
2018-10-15T22:09:49.544Z,95.00
2018-10-15T22:12:18.120Z,95.20
2018-10-15T22:14:46.667Z,95.30
2018-10-15T22:17:15.194Z,94.80
2018-10-15T22:19:43.684Z,94.20
2018-10-15T22:22:12.230Z,93.70
2018-10-15T22:24:40.762Z,93.30
2018-10-15T22:27:09.499Z,93.10
2018-10-15T22:29:38.043Z,93.00
2018-10-15T22:32:06.638Z,92.60
2018-10-15T22:34:35.235Z,92.20
2018-10-15T22:37:03.771Z,92.00
2018-10-15T22:39:32.367Z,91.80
2018-10-15T22:42:00.851Z,91.20
2018-10-15T22:44:29.411Z,91.00
2018-10-15T22:46:57.965Z,91.00
2018-10-15T22:49:26.551Z,90.80
2018-10-15T22:51:55.063Z,90.80
2018-10-15T22:54:23.603Z,90.60
2018-10-15T22:56:52.079Z,90.40
2018-10-15T22:59:20.621Z,90.10
2018-10-15T23:01:49.139Z,90.00
2018-10-15T23:04:17.721Z,89.60
2018-10-15T23:06:46.250Z,89.50
2018-10-15T23:09:14.842Z,89.10
2018-10-15T23:11:43.372Z,89.90
2018-10-15T23:14:11.951Z,89.30
2018-10-15T23:16:40.461Z,90.20
2018-10-15T23:19:09.020Z,90.30
2018-10-15T23:21:37.515Z,90.50
2018-10-15T23:24:06.069Z,90.20
2018-10-15T23:26:34.631Z,90.30
2018-10-15T23:29:03.146Z,90.40
2018-10-15T23:31:31.709Z,90.90
2018-10-15T23:34:00.199Z,91.30
2018-10-15T23:36:28.752Z,91.60
2018-10-15T23:38:57.365Z,91.80
2018-10-15T23:41:25.925Z,91.60
2018-10-15T23:43:54.450Z,91.80
2018-10-15T23:46:22.978Z,91.70
2018-10-15T23:48:51.514Z,92.20
2018-10-15T23:51:20.060Z,92.10
2018-10-15T23:53:48.605Z,92.30
2018-10-15T23:56:17.211Z,92.70
2018-10-15T23:58:45.718Z,93.20
